Time;durP1;ratioP1;P1;durP2;ratioP2;P2;SDS_P1;SDS_P2;PMS_P1;PMS_P2;Temp;Humidity;BMP_temperature;BMP_pressure;BME280_temperature;BME280_humidity;BME280_pressure;Samples;Min_cycle;Max_cycle;Signal;HPM_P1;HPM_P2
2021/08/09 00:01:00;;;;;;;;;;;;;;;23.01;55.02;100862.44;2173826;40;115267;-52
2021/08/09 00:02:32;;;;;;;;;;;;;;;23.01;55.08;100863.28;2174561;40;114860;-53
2021/08/09 00:04:04;;;;;;;;;;;;;;;23.02;54.95;100853.66;2174324;40;114818;-53
2021/08/09 00:05:36;;;;;;;;;;;;;;;23.01;55.14;100857.63;2174575;40;114947;-53
2021/08/09 00:07:09;;;;;;;;;;;;;;;23.02;55.11;100855.66;2173472;40;114982;-53
2021/08/09 00:08:41;;;;;;;;;;;;;;;23.01;54.81;100859.63;2175105;40;115038;-53
2021/08/09 00:10:13;;;;;;;;;;;;;;;23.01;55.02;100860.44;2175508;39;114760;-53
2021/08/09 00:11:44;;;;;;;;;;;;;;;23.00;54.92;100850.34;2173706;40;114227;-53
2021/08/09 00:13:16;;;;;;;;;;;;;;;23.01;55.01;100853.97;2174562;40;114835;-53
2021/08/09 00:14:48;;;;;;;;;;;;;;;22.99;55.01;100847.84;2173658;40;115067;-52
2021/08/09 00:16:20;;;;;;;;;;;;;;;23.00;54.99;100841.88;2172827;40;115406;-53
2021/08/09 00:17:52;;;;;;;;;;;;;;;23.00;54.84;100849.50;2165295;40;115314;-53
2021/08/09 00:19:24;;;;;;;;;;;;;;;22.99;55.02;100845.84;2169836;40;115552;-53
2021/08/09 00:20:57;;;;;;;;;;;;;;;22.97;54.95;100847.34;2176169;40;114894;-52
2021/08/09 00:22:29;;;;;;;;;;;;;;;22.95;55.12;100847.66;2170079;40;115687;-53
2021/08/09 00:24:01;;;;;;;;;;;;;;;22.96;55.14;100846.50;2174418;40;115554;-52
2021/08/09 00:25:32;;;;;;;;;;;;;;;22.96;55.19;100849.34;2174164;40;115488;-53
2021/08/09 00:27:05;;;;;;;;;;;;;;;22.96;55.07;100846.50;2167229;40;116380;-53
2021/08/09 00:28:37;;;;;;;;;;;;;;;22.95;55.02;100839.22;2169754;40;116022;-53
2021/08/09 00:30:10;;;;;;;;;;;;;;;22.95;55.00;100844.00;2166717;40;114501;-53
2021/08/09 00:31:43;;;;;;;;;;;;;;;22.93;55.11;100846.34;2171384;40;115593;-53
2021/08/09 00:33:15;;;;;;;;;;;;;;;22.94;55.00;100839.56;2174205;40;115556;-53
2021/08/09 00:34:47;;;;;;;;;;;;;;;22.90;55.08;100838.53;2174094;40;115529;-53
2021/08/09 00:36:19;;;;;;;;;;;;;;;22.90;55.12;100832.88;2173273;40;114824;-53
2021/08/09 00:37:50;;;;;;;;;;;;;;;22.88;55.20;100827.59;2173500;40;114896;-53
2021/08/09 00:39:22;;;;;;;;;;;;;;;22.89;55.19;100832.09;2173864;40;115478;-53
2021/08/09 00:40:54;;;;;;;;;;;;;;;22.89;55.30;100836.88;2174040;40;115838;-53
2021/08/09 00:42:27;;;;;;;;;;;;;;;22.88;55.13;100835.22;2176825;40;115408;-53
2021/08/09 00:43:58;;;;;;;;;;;;;;;22.85;55.23;100824.63;2173422;40;113585;-53
2021/08/09 00:45:30;;;;;;;;;;;;;;;22.88;55.22;100832.41;2185328;39;113955;-53
2021/08/09 00:47:02;;;;;;;;;;;;;;;22.86;55.08;100834.72;2175807;39;113949;-53
2021/08/09 00:48:34;;;;;;;;;;;;;;;22.85;55.25;100828.22;2173961;40;113798;-53
2021/08/09 00:50:06;;;;;;;;;;;;;;;22.84;55.20;100831.41;2173260;40;113672;-53
2021/08/09 00:51:38;;;;;;;;;;;;;;;22.84;55.11;100820.13;2173155;40;113934;-52
2021/08/09 00:53:10;;;;;;;;;;;;;;;22.83;55.18;100827.75;2171642;40;113880;-53
2021/08/09 00:54:42;;;;;;;;;;;;;;;22.81;55.10;100815.97;2173650;40;113999;-53
2021/08/09 00:56:14;;;;;;;;;;;;;;;22.80;55.27;100821.94;2173861;40;113809;-53
2021/08/09 00:57:45;;;;;;;;;;;;;;;22.77;55.32;100814.97;2174000;40;114022;-53
2021/08/09 00:59:17;;;;;;;;;;;;;;;22.78;55.41;100810.16;2174246;40;113801;-53
2021/08/09 01:00:49;;;;;;;;;;;;;;;22.77;55.22;100814.97;2174051;40;113741;-52
2021/08/09 01:02:21;;;;;;;;;;;;;;;22.76;55.41;100821.75;2172836;40;113847;-53
2021/08/09 01:03:53;;;;;;;;;;;;;;;22.76;55.44;100816.13;2177226;40;113740;-54
2021/08/09 01:05:24;;;;;;;;;;;;;;;22.74;55.31;100811.97;2172933;40;115213;-53
2021/08/09 01:06:56;;;;;;;;;;;;;;;22.73;55.36;100813.13;2174743;40;114307;-53
2021/08/09 01:08:38;;;;;;;;;;;;;;;22.74;55.61;100809.16;2175081;40;115425;-53
2021/08/09 01:10:16;;;;;;;;;;;;;;;22.71;55.74;100807.00;2177769;40;114650;-53
2021/08/09 01:11:53;;;;;;;;;;;;;;;22.71;55.82;100810.66;2173185;40;114739;-53
2021/08/09 01:13:45;;;;;;;;;;;;;;;22.68;55.94;100804.78;2171655;40;115057;-52
2021/08/09 01:15:19;;;;;;;;;;;;;;;22.70;55.82;100808.16;2184304;39;115019;-53
2021/08/09 01:16:51;;;;;;;;;;;;;;;22.67;55.96;100812.41;2174632;39;115324;-53
2021/08/09 01:18:24;;;;;;;;;;;;;;;22.65;55.98;100813.91;2172976;40;114815;-53
2021/08/09 01:20:06;;;;;;;;;;;;;;;22.65;55.97;100811.91;2174179;40;115138;-53
2021/08/09 01:21:38;;;;;;;;;;;;;;;22.62;56.21;100810.56;2174056;40;113879;-53
2021/08/09 01:23:18;;;;;;;;;;;;;;;22.61;56.33;100811.75;2173400;40;115708;-53
2021/08/09 01:24:54;;;;;;;;;;;;;;;22.60;56.27;100804.44;2173429;40;114820;-53
2021/08/09 01:26:35;;;;;;;;;;;;;;;22.58;56.40;100806.75;2186385;39;114758;-52
2021/08/09 01:28:08;;;;;;;;;;;;;;;22.60;56.54;100810.09;2175720;39;114285;-54
2021/08/09 01:29:42;;;;;;;;;;;;;;;22.60;56.57;100807.25;2173478;40;115501;-53
2021/08/09 01:31:15;;;;;;;;;;;;;;;22.63;56.58;100809.41;2168324;40;115551;-53
2021/08/09 01:32:48;;;;;;;;;;;;;;;22.62;56.88;100804.94;2179531;40;115642;-53
2021/08/09 01:34:21;;;;;;;;;;;;;;;22.60;56.93;100803.63;2173074;40;117544;-53
2021/08/09 01:35:55;;;;;;;;;;;;;;;22.59;57.10;100805.59;2166757;40;115852;-53
2021/08/09 01:37:28;;;;;;;;;;;;;;;22.58;56.75;100808.72;2171578;40;115132;-53
2021/08/09 01:39:01;;;;;;;;;;;;;;;22.58;57.08;100809.56;2174028;40;115766;-53
2021/08/09 01:40:33;;;;;;;;;;;;;;;22.57;56.90;100807.94;2172352;40;114749;-53
2021/08/09 01:42:06;;;;;;;;;;;;;;;22.56;57.11;100806.25;2171872;40;114932;-53
2021/08/09 01:43:39;;;;;;;;;;;;;;;22.54;57.01;100810.53;2172632;40;115558;-53
2021/08/09 01:45:12;;;;;;;;;;;;;;;22.56;56.99;100802.59;2175623;40;114500;-53
2021/08/09 01:46:44;;;;;;;;;;;;;;;22.54;56.95;100805.75;2175394;40;115484;-53
2021/08/09 01:48:16;;;;;;;;;;;;;;;22.53;57.09;100809.72;2173008;40;115559;-53
2021/08/09 01:49:48;;;;;;;;;;;;;;;22.53;57.04;100811.72;2175220;40;115997;-53
2021/08/09 01:51:20;;;;;;;;;;;;;;;22.51;57.21;100799.94;2184521;39;114010;-53
2021/08/09 01:52:52;;;;;;;;;;;;;;;22.51;57.10;100799.94;2176775;39;113828;-53
2021/08/09 01:54:25;;;;;;;;;;;;;;;22.51;57.29;100805.56;2173793;40;113931;-53
2021/08/09 01:55:56;;;;;;;;;;;;;;;22.49;57.14;100805.88;2173665;40;113948;-53
2021/08/09 01:57:28;;;;;;;;;;;;;;;22.49;57.34;100807.88;2173379;40;114059;-53
2021/08/09 01:59:00;;;;;;;;;;;;;;;22.49;57.46;100805.06;2177685;40;113869;-52
2021/08/09 02:00:32;;;;;;;;;;;;;;;22.53;57.31;100798.44;2169700;40;113901;-53
2021/08/09 02:02:04;;;;;;;;;;;;;;;22.56;57.22;100799.78;2173712;40;113745;-52
2021/08/09 02:03:36;;;;;;;;;;;;;;;22.52;57.21;100802.44;2173454;40;113904;-53
2021/08/09 02:05:11;;;;;;;;;;;;;;;22.50;57.09;100792.63;2179205;40;113902;-52
2021/08/09 02:06:43;;;;;;;;;;;;;;;22.51;57.17;100805.56;2170994;40;113667;-53
2021/08/09 02:08:16;;;;;;;;;;;;;;;22.51;57.21;100795.13;2171479;40;113743;-52
2021/08/09 02:09:48;;;;;;;;;;;;;;;22.50;57.30;100801.09;2171378;40;113882;-53
2021/08/09 02:11:24;;;;;;;;;;;;;;;22.49;57.25;100794.63;2172395;40;113900;-53
2021/08/09 02:12:57;;;;;;;;;;;;;;;22.48;57.28;100800.59;2173815;40;114853;-53
2021/08/09 02:14:31;;;;;;;;;;;;;;;22.47;57.24;100794.13;2173845;40;114870;-53
2021/08/09 02:16:06;;;;;;;;;;;;;;;22.50;57.29;100798.28;2173839;40;115093;-53
2021/08/09 02:17:42;;;;;;;;;;;;;;;22.50;57.25;100798.28;2166773;40;115246;-53
2021/08/09 02:19:16;;;;;;;;;;;;;;;22.48;57.16;100793.00;2170530;40;114756;-53
2021/08/09 02:20:49;;;;;;;;;;;;;;;22.48;57.18;100804.25;2168999;40;114822;-53
2021/08/09 02:22:26;;;;;;;;;;;;;;;22.47;57.13;100801.75;2173928;40;114722;-53
2021/08/09 02:24:00;;;;;;;;;;;;;;;22.45;57.26;100796.44;2174811;40;114340;-53
2021/08/09 02:25:35;;;;;;;;;;;;;;;22.47;57.13;100808.22;2179452;40;114645;-53
2021/08/09 02:27:10;;;;;;;;;;;;;;;22.47;57.24;100802.59;2175793;40;114782;-53
2021/08/09 02:28:46;;;;;;;;;;;;;;;22.45;57.06;100795.59;2172976;40;114808;-53
2021/08/09 02:30:19;;;;;;;;;;;;;;;22.45;57.20;100792.78;2173728;40;115259;-52
2021/08/09 02:31:53;;;;;;;;;;;;;;;22.44;57.23;100791.94;2174437;40;114830;-53
2021/08/09 02:33:26;;;;;;;;;;;;;;;22.43;57.28;100784.69;2181745;40;114837;-53
2021/08/09 02:34:58;;;;;;;;;;;;;;;22.42;57.23;100788.66;2176564;40;114384;-53
2021/08/09 02:36:31;;;;;;;;;;;;;;;22.40;57.39;100782.50;2172713;40;115601;-51
2021/08/09 02:38:04;;;;;;;;;;;;;;;22.38;57.43;100789.63;2174055;40;115818;-53
2021/08/09 02:39:37;;;;;;;;;;;;;;;22.36;57.52;100783.47;2174638;40;115424;-52
2021/08/09 02:41:09;;;;;;;;;;;;;;;22.35;57.29;100774.19;2179993;40;115648;-53
2021/08/09 02:42:41;;;;;;;;;;;;;;;22.32;57.43;100780.47;2175832;40;115668;-53
2021/08/09 02:44:13;;;;;;;;;;;;;;;22.32;57.41;100776.84;2174727;40;116221;-53
2021/08/09 02:45:47;;;;;;;;;;;;;;;22.31;57.62;100781.63;2174463;40;115595;-53
2021/08/09 02:47:19;;;;;;;;;;;;;;;22.30;57.67;100777.19;2174360;40;115593;-53
2021/08/09 02:48:51;;;;;;;;;;;;;;;22.30;57.62;100777.19;2174065;40;115644;-53
2021/08/09 02:50:23;;;;;;;;;;;;;;;22.30;57.65;100770.72;2174329;40;115535;-53
2021/08/09 02:51:55;;;;;;;;;;;;;;;22.29;57.73;100772.69;2173877;40;115392;-53
2021/08/09 02:53:28;;;;;;;;;;;;;;;22.28;57.77;100768.22;2174547;40;115438;-53
2021/08/09 02:55:00;;;;;;;;;;;;;;;22.27;57.52;100777.81;2176656;40;115744;-53
2021/08/09 02:56:32;;;;;;;;;;;;;;;22.28;57.72;100773.00;2173800;40;113768;-53
2021/08/09 02:58:07;;;;;;;;;;;;;;;22.29;57.73;100777.50;2174770;40;113685;-53
2021/08/09 02:59:39;;;;;;;;;;;;;;;22.27;57.94;100774.16;2179170;40;113600;-53
2021/08/09 03:01:14;;;;;;;;;;;;;;;22.26;57.83;100770.50;2173712;40;113665;-53
2021/08/09 03:02:46;;;;;;;;;;;;;;;22.25;57.69;100771.69;2175629;40;114034;-53
2021/08/09 03:04:19;;;;;;;;;;;;;;;22.24;57.63;100760.75;2181077;39;114743;-53
2021/08/09 03:05:53;;;;;;;;;;;;;;;22.24;57.90;100761.59;2176945;40;115215;-53
2021/08/09 03:07:25;;;;;;;;;;;;;;;22.22;57.85;100752.63;2180337;39;113793;-53
2021/08/09 03:08:57;;;;;;;;;;;;;;;22.23;58.13;100761.91;2185718;39;114084;-53
2021/08/09 03:10:29;;;;;;;;;;;;;;;22.20;57.93;100760.56;2175365;40;114099;-53
2021/08/09 03:12:02;;;;;;;;;;;;;;;22.21;57.84;100756.59;2171164;40;114086;-53
2021/08/09 03:13:34;;;;;;;;;;;;;;;22.21;58.07;100758.59;2177088;40;113621;-53
2021/08/09 03:15:06;;;;;;;;;;;;;;;22.23;58.07;100757.09;2175440;40;113787;-53
2021/08/09 03:16:39;;;;;;;;;;;;;;;22.21;58.01;100759.44;2174259;40;113882;-53
2021/08/09 03:18:11;;;;;;;;;;;;;;;22.19;58.20;100756.09;2176257;40;113795;-53
2021/08/09 03:19:42;;;;;;;;;;;;;;;22.18;58.04;100757.25;2173592;40;114824;-53
2021/08/09 03:21:14;;;;;;;;;;;;;;;22.19;57.97;100747.66;2174385;40;114903;-53
2021/08/09 03:22:46;;;;;;;;;;;;;;;22.18;58.23;100749.63;2174526;40;114719;-53
2021/08/09 03:24:19;;;;;;;;;;;;;;;22.18;58.13;100748.78;2169399;40;114884;-53
2021/08/09 03:25:50;;;;;;;;;;;;;;;22.18;58.24;100745.97;2173799;40;115253;-53
2021/08/09 03:27:22;;;;;;;;;;;;;;;22.17;58.17;100749.94;2179768;40;114762;-53
2021/08/09 03:28:54;;;;;;;;;;;;;;;22.18;58.14;100748.78;2185518;39;115460;-53
2021/08/09 03:30:27;;;;;;;;;;;;;;;22.15;58.31;100747.47;2178007;39;114763;-53
2021/08/09 03:31:58;;;;;;;;;;;;;;;22.14;58.35;100748.63;2172914;40;114206;-53
2021/08/09 03:33:30;;;;;;;;;;;;;;;22.15;58.33;100749.44;2174156;40;114837;-53
2021/08/09 03:35:02;;;;;;;;;;;;;;;22.14;58.39;100739.34;2174142;40;114149;-52
2021/08/09 03:36:34;;;;;;;;;;;;;;;22.13;58.65;100737.69;2173695;40;114760;-53
2021/08/09 03:38:06;;;;;;;;;;;;;;;22.13;58.47;100744.13;2186007;39;114883;-53
2021/08/09 03:39:37;;;;;;;;;;;;;;;22.12;58.39;100742.47;2174645;40;114550;-53
2021/08/09 03:41:09;;;;;;;;;;;;;;;22.14;58.61;100744.97;2174495;40;115714;-53
2021/08/09 03:42:41;;;;;;;;;;;;;;;22.13;58.58;100743.31;2173319;40;114374;-53
2021/08/09 03:44:13;;;;;;;;;;;;;;;22.14;58.60;100747.78;2185312;39;115573;-53
2021/08/09 03:45:45;;;;;;;;;;;;;;;22.12;58.41;100734.03;2178055;39;117860;-53
2021/08/09 03:47:17;;;;;;;;;;;;;;;22.10;58.60;100742.00;2174306;40;115650;-53
2021/08/09 03:48:49;;;;;;;;;;;;;;;22.11;58.86;100734.38;2174211;40;114662;-53
2021/08/09 03:50:20;;;;;;;;;;;;;;;22.10;58.72;100733.53;2174296;40;115957;-53
2021/08/09 03:51:52;;;;;;;;;;;;;;;22.10;58.81;100732.72;2174084;40;114215;-53
2021/08/09 03:53:24;;;;;;;;;;;;;;;22.10;58.76;100725.09;2174308;40;115862;-53
2021/08/09 03:54:56;;;;;;;;;;;;;;;22.09;59.02;100729.06;2174525;40;114812;-53
2021/08/09 03:56:27;;;;;;;;;;;;;;;22.09;58.89;100731.03;2171932;40;115533;-53
2021/08/09 03:57:59;;;;;;;;;;;;;;;22.08;58.97;100724.59;2174082;40;115808;-53
2021/08/09 03:59:31;;;;;;;;;;;;;;;22.09;58.88;100733.84;2174400;40;115705;-53
2021/08/09 04:01:03;;;;;;;;;;;;;;;22.08;59.05;100729.38;2172842;40;115430;-53
2021/08/09 04:02:37;;;;;;;;;;;;;;;22.08;59.05;100726.56;2174424;40;113920;-53
2021/08/09 04:04:12;;;;;;;;;;;;;;;22.09;58.92;100731.88;2171542;40;113928;-53
2021/08/09 04:05:44;;;;;;;;;;;;;;;22.06;59.04;100726.91;2170557;40;113838;-53
2021/08/09 04:07:16;;;;;;;;;;;;;;;22.07;58.95;100730.56;2183684;39;114060;-53
2021/08/09 04:08:49;;;;;;;;;;;;;;;22.06;59.16;100726.91;2177332;39;113874;-53
2021/08/09 04:10:21;;;;;;;;;;;;;;;22.07;59.19;100724.94;2174238;40;113715;-53
2021/08/09 04:11:52;;;;;;;;;;;;;;;22.06;59.05;100726.91;2174624;40;114222;-53
2021/08/09 04:13:24;;;;;;;;;;;;;;;22.05;59.04;100730.03;2173637;40;113914;-52
2021/08/09 04:14:56;;;;;;;;;;;;;;;22.05;59.04;100727.22;2173985;40;113982;-53
2021/08/09 04:16:28;;;;;;;;;;;;;;;22.05;58.96;100730.88;2174455;40;114498;-53
2021/08/09 04:17:59;;;;;;;;;;;;;;;22.04;59.05;100734.00;2170575;40;113591;-52
2021/08/09 04:19:31;;;;;;;;;;;;;;;22.04;59.16;100736.81;2171630;40;113740;-53
2021/08/09 04:21:03;;;;;;;;;;;;;;;22.04;58.98;100734.84;2174357;40;113675;-53
2021/08/09 04:22:35;;;;;;;;;;;;;;;22.04;59.23;100736.81;2176800;40;113771;-52
2021/08/09 04:24:06;;;;;;;;;;;;;;;22.04;59.44;100739.63;2174424;40;114877;-53
2021/08/09 04:25:38;;;;;;;;;;;;;;;22.03;59.35;100746.44;2174495;40;115511;-53
2021/08/09 04:27:10;;;;;;;;;;;;;;;22.03;59.27;100741.59;2173359;40;114783;-53
2021/08/09 04:28:42;;;;;;;;;;;;;;;22.03;59.29;100749.25;2174643;40;114930;-53
2021/08/09 04:30:14;;;;;;;;;;;;;;;22.02;59.47;100747.56;2173993;40;115006;-53
2021/08/09 04:31:45;;;;;;;;;;;;;;;22.02;59.16;100754.03;2173741;40;114893;-53
2021/08/09 04:33:17;;;;;;;;;;;;;;;22.02;59.32;100756.84;2174208;40;114756;-53
2021/08/09 04:35:00;;;;;;;;;;;;;;;22.01;59.40;100755.19;2174249;40;115282;-53
2021/08/09 04:36:32;;;;;;;;;;;;;;;22.00;59.33;100752.69;2174013;40;115013;-53
2021/08/09 04:38:04;;;;;;;;;;;;;;;22.01;59.48;100759.97;2172212;40;114907;-52
2021/08/09 04:39:35;;;;;;;;;;;;;;;22.00;59.48;100759.16;2169157;40;113768;-53
2021/08/09 04:41:09;;;;;;;;;;;;;;;21.99;59.22;100760.28;2173410;40;114901;-53
2021/08/09 04:42:40;;;;;;;;;;;;;;;22.00;59.38;100756.31;2179624;40;113925;-53
2021/08/09 04:44:13;;;;;;;;;;;;;;;22.00;59.50;100752.69;2172738;40;114706;-53
2021/08/09 04:45:45;;;;;;;;;;;;;;;21.99;59.40;100751.84;2173679;40;115582;-52
2021/08/09 04:47:17;;;;;;;;;;;;;;;22.05;59.34;100763.81;2173823;40;115532;-53
2021/08/09 04:48:49;;;;;;;;;;;;;;;22.07;59.08;100759.53;2172791;40;116107;-52
2021/08/09 04:50:21;;;;;;;;;;;;;;;22.04;58.93;100757.34;2179381;39;115489;-52
2021/08/09 04:51:53;;;;;;;;;;;;;;;22.01;59.00;100758.00;2175637;40;115454;-53
2021/08/09 04:53:25;;;;;;;;;;;;;;;22.00;58.83;100763.94;2174160;40;115496;-53
2021/08/09 04:54:57;;;;;;;;;;;;;;;21.97;59.13;100768.25;2174071;40;115493;-53
2021/08/09 04:56:28;;;;;;;;;;;;;;;21.99;59.01;100760.28;2173946;40;115666;-53
2021/08/09 04:58:00;;;;;;;;;;;;;;;21.95;58.90;100769.69;2174097;40;115547;-53
2021/08/09 04:59:32;;;;;;;;;;;;;;;21.95;59.01;100769.69;2176262;40;115758;-53
2021/08/09 05:01:04;;;;;;;;;;;;;;;21.94;59.04;100768.06;2173395;40;114707;-53
2021/08/09 05:02:36;;;;;;;;;;;;;;;21.91;59.03;100763.84;2174119;40;115815;-53
2021/08/09 05:04:08;;;;;;;;;;;;;;;21.90;59.18;100764.16;2174064;40;115153;-54
2021/08/09 05:05:44;;;;;;;;;;;;;;;21.91;59.07;100766.66;2173650;40;115473;-53
2021/08/09 05:07:16;;;;;;;;;;;;;;;21.90;59.06;100766.97;2176422;40;115524;-53
2021/08/09 05:08:47;;;;;;;;;;;;;;;21.88;59.17;100774.94;2174063;40;113729;-53
2021/08/09 05:10:19;;;;;;;;;;;;;;;21.86;59.22;100764.00;2173733;40;113739;-53
2021/08/09 05:11:51;;;;;;;;;;;;;;;21.86;59.16;100763.16;2173968;40;113829;-53
2021/08/09 05:13:22;;;;;;;;;;;;;;;21.86;59.14;100763.16;2174179;40;113787;-53
2021/08/09 05:14:54;;;;;;;;;;;;;;;21.85;59.30;100764.34;2172872;40;113758;-53
2021/08/09 05:16:26;;;;;;;;;;;;;;;21.84;59.24;100774.75;2173975;40;113986;-53
2021/08/09 05:17:58;;;;;;;;;;;;;;;21.84;59.37;100766.31;2172245;40;113934;-53
2021/08/09 05:19:30;;;;;;;;;;;;;;;21.83;59.23;100766.63;2174188;40;113621;-53
2021/08/09 05:21:04;;;;;;;;;;;;;;;21.83;59.34;100770.28;2174037;40;113759;-53
2021/08/09 05:22:36;;;;;;;;;;;;;;;21.82;59.31;100768.59;2174105;40;113881;-52
2021/08/09 05:24:08;;;;;;;;;;;;;;;21.83;59.26;100767.47;2173126;40;113586;-52
2021/08/09 05:25:40;;;;;;;;;;;;;;;21.83;59.25;100766.63;2174094;40;113630;-53
2021/08/09 05:27:12;;;;;;;;;;;;;;;21.83;59.20;100766.63;2179574;39;114231;-53
2021/08/09 05:28:43;;;;;;;;;;;;;;;21.81;59.43;100769.75;2179049;39;113805;-53
2021/08/09 05:30:15;;;;;;;;;;;;;;;21.81;59.42;100772.56;2173398;40;114992;-53
2021/08/09 05:31:47;;;;;;;;;;;;;;;21.81;59.48;100771.72;2173063;40;114785;-53
2021/08/09 05:33:19;;;;;;;;;;;;;;;21.80;59.32;100770.09;2174036;40;113845;-54
2021/08/09 05:34:50;;;;;;;;;;;;;;;21.80;59.50;100776.56;2171451;40;114896;-53
2021/08/09 05:36:22;;;;;;;;;;;;;;;21.79;59.53;100771.25;2173604;40;114231;-53
2021/08/09 05:37:54;;;;;;;;;;;;;;;21.79;59.51;100777.69;2173639;40;114046;-52
2021/08/09 05:39:26;;;;;;;;;;;;;;;21.78;59.60;100767.59;2171373;40;113852;-53
2021/08/09 05:40:58;;;;;;;;;;;;;;;21.79;59.51;100777.69;2173888;40;114815;-53
2021/08/09 05:42:29;;;;;;;;;;;;;;;21.78;59.34;100775.19;2172691;40;114971;-53
2021/08/09 05:44:01;;;;;;;;;;;;;;;21.78;59.50;100783.63;2173398;40;114812;-52
2021/08/09 05:45:33;;;;;;;;;;;;;;;21.78;59.54;100784.47;2173725;40;114900;-53
2021/08/09 05:47:05;;;;;;;;;;;;;;;21.79;59.43;100788.09;2173906;40;114960;-53
2021/08/09 05:48:36;;;;;;;;;;;;;;;21.83;59.53;100777.88;2173538;40;115687;-53
2021/08/09 05:50:09;;;;;;;;;;;;;;;21.87;59.20;100781.69;2176324;40;114428;-53
2021/08/09 05:51:40;;;;;;;;;;;;;;;21.90;59.55;100775.41;2178905;40;115651;-53
2021/08/09 05:53:12;;;;;;;;;;;;;;;21.91;59.79;100783.56;2176480;40;114686;-53
2021/08/09 05:54:44;;;;;;;;;;;;;;;21.95;59.79;100778.97;2174684;40;115613;-53
2021/08/09 05:56:15;;;;;;;;;;;;;;;21.97;59.77;100784.28;2174515;40;115514;-53
2021/08/09 05:57:47;;;;;;;;;;;;;;;21.97;59.82;100787.94;2175068;40;115479;-53
2021/08/09 05:59:19;;;;;;;;;;;;;;;22.00;60.04;100783.63;2174176;40;115976;-53
2021/08/09 06:00:51;;;;;;;;;;;;;;;22.02;60.12;100789.78;2174797;40;115660;-54
2021/08/09 06:02:23;;;;;;;;;;;;;;;22.02;60.31;100786.97;2174569;40;115469;-53
2021/08/09 06:03:55;;;;;;;;;;;;;;;22.04;60.59;100788.28;2173552;40;115515;-52
2021/08/09 06:05:27;;;;;;;;;;;;;;;22.08;60.61;100794.09;2174148;40;115845;-53
2021/08/09 06:06:59;;;;;;;;;;;;;;;22.09;60.71;100792.94;2173888;40;115557;-52
2021/08/09 06:08:30;;;;;;;;;;;;;;;22.11;60.72;100785.88;2172241;40;115539;-53
2021/08/09 06:10:02;;;;;;;;;;;;;;;22.14;60.99;100790.00;2184230;39;114597;-53
2021/08/09 06:11:34;;;;;;;;;;;;;;;22.17;60.94;100793.00;2180970;39;115592;-53
2021/08/09 06:13:06;;;;;;;;;;;;;;;22.20;61.13;100794.34;2174623;40;113819;-53
2021/08/09 06:14:41;;;;;;;;;;;;;;;22.23;60.87;100793.69;2173864;40;113804;-53
2021/08/09 06:16:14;;;;;;;;;;;;;;;22.25;60.96;100794.22;2174739;40;113638;-53
2021/08/09 06:17:46;;;;;;;;;;;;;;;22.29;60.72;100791.56;2173838;40;113928;-53
2021/08/09 06:19:18;;;;;;;;;;;;;;;22.32;60.77;100788.09;2173743;40;113938;-53
2021/08/09 06:20:50;;;;;;;;;;;;;;;22.35;60.70;100793.91;2175035;40;113830;-53
2021/08/09 06:22:21;;;;;;;;;;;;;;;22.38;60.74;100789.63;2174414;40;113637;-53
2021/08/09 06:23:53;;;;;;;;;;;;;;;22.41;60.69;100784.16;2180085;40;113878;-53
2021/08/09 06:25:27;;;;;;;;;;;;;;;22.44;60.80;100791.94;2174970;39;114058;-53
2021/08/09 06:26:59;;;;;;;;;;;;;;;22.47;60.93;100796.94;2169432;40;113653;-53
2021/08/09 06:28:30;;;;;;;;;;;;;;;22.50;60.53;100798.28;2178072;40;113935;-53
2021/08/09 06:30:02;;;;;;;;;;;;;;;22.53;60.45;100794.81;2176580;40;113601;-53
2021/08/09 06:31:34;;;;;;;;;;;;;;;22.55;60.14;100798.97;2174605;40;113846;-53
2021/08/09 06:33:06;;;;;;;;;;;;;;;22.57;60.18;100796.66;2174262;40;113788;-53
2021/08/09 06:34:37;;;;;;;;;;;;;;;22.60;60.09;100798.81;2177272;40;113945;-53
2021/08/09 06:36:13;;;;;;;;;;;;;;;22.63;59.97;100803.78;2173183;40;114780;-53
2021/08/09 06:37:45;;;;;;;;;;;;;;;22.67;59.83;100800.34;2169009;40;113707;-53
2021/08/09 06:39:20;;;;;;;;;;;;;;;22.70;59.70;100799.72;2174931;40;115174;-52
2021/08/09 06:40:51;;;;;;;;;;;;;;;22.71;59.64;100802.22;2183064;39;113917;-52
2021/08/09 06:42:23;;;;;;;;;;;;;;;22.74;59.46;100800.72;2178061;39;115094;-53
2021/08/09 06:43:55;;;;;;;;;;;;;;;22.76;59.57;100807.66;2174164;40;114854;-52
2021/08/09 06:45:27;;;;;;;;;;;;;;;22.78;59.33;100804.53;2185453;39;114831;-53
2021/08/09 06:46:59;;;;;;;;;;;;;;;22.80;59.11;100802.22;2178161;39;114935;-53
2021/08/09 06:48:30;;;;;;;;;;;;;;;22.82;59.35;100805.53;2173778;40;114975;-53
2021/08/09 06:50:03;;;;;;;;;;;;;;;22.84;59.18;100806.88;2173202;40;115178;-53
2021/08/09 06:51:34;;;;;;;;;;;;;;;;;;2174382;40;114760;-53
2021/08/09 06:53:06;;;;;;;;;;;;;;;22.88;59.39;100807.06;2173263;40;143337;-53
2021/08/09 06:54:38;;;;;;;;;;;;;;;22.91;59.28;100812.00;2179863;40;113829;-52
2021/08/09 06:56:14;;;;;;;;;;;;;;;22.93;59.07;100809.72;2175303;40;115380;-52
2021/08/09 06:57:46;;;;;;;;;;;;;;;22.93;59.06;100807.72;2174606;40;115509;-52
2021/08/09 06:59:18;;;;;;;;;;;;;;;22.96;59.17;100811.88;2171452;40;115690;-53
2021/08/09 07:00:50;;;;;;;;;;;;;;;22.95;59.08;100810.19;2173512;40;115548;-53
2021/08/09 07:02:22;;;;;;;;;;;;;;;22.97;58.95;100811.53;2171244;40;115551;-53
2021/08/09 07:03:54;;;;;;;;;;;;;;;23.00;58.91;100818.50;2174769;40;115492;-55
2021/08/09 07:05:26;;;;;;;;;;;;;;;23.00;58.79;100813.69;2173687;40;114847;-53
2021/08/09 07:06:57;;;;;;;;;;;;;;;23.02;58.60;100819.00;2174456;40;115888;-52
2021/08/09 07:08:29;;;;;;;;;;;;;;;23.04;58.40;100819.50;2174552;40;115542;-53
2021/08/09 07:10:01;;;;;;;;;;;;;;;23.04;58.68;100817.50;2169091;40;115600;-53
2021/08/09 07:11:33;;;;;;;;;;;;;;;23.07;58.45;100826.47;2169246;40;116412;-52
2021/08/09 07:13:05;;;;;;;;;;;;;;;23.05;58.44;100827.63;2174010;40;115688;-53
2021/08/09 07:14:37;;;;;;;;;;;;;;;23.07;58.51;100829.31;2170410;40;115605;-53
2021/08/09 07:16:08;;;;;;;;;;;;;;;23.06;58.28;100825.66;2172713;40;115963;-53
2021/08/09 07:17:41;;;;;;;;;;;;;;;23.07;58.63;100830.13;2176807;40;115249;-52
2021/08/09 07:19:13;;;;;;;;;;;;;;;23.07;58.41;100832.97;2173141;40;114247;-53
2021/08/09 07:20:45;;;;;;;;;;;;;;;23.08;58.45;100836.59;2175106;40;113740;-53
2021/08/09 07:22:17;;;;;;;;;;;;;;;23.08;58.54;100826.13;2174666;40;113825;-53
2021/08/09 07:23:49;;;;;;;;;;;;;;;23.08;58.45;100837.41;2179293;39;114343;-53
2021/08/09 07:25:21;;;;;;;;;;;;;;;23.09;58.50;100832.59;2170845;40;113812;-52
2021/08/09 07:26:53;;;;;;;;;;;;;;;23.08;58.45;100842.25;2172429;40;113992;-53
2021/08/09 07:28:24;;;;;;;;;;;;;;;23.06;58.51;100836.94;2174585;40;113988;-53
2021/08/09 07:29:56;;;;;;;;;;;;;;;23.07;58.40;100840.56;2174378;40;113785;-53
2021/08/09 07:31:28;;;;;;;;;;;;;;;23.06;58.43;100836.94;2173783;40;113668;-53
2021/08/09 07:33:00;;;;;;;;;;;;;;;23.06;58.47;100836.94;2174605;40;113582;-53
2021/08/09 07:34:32;;;;;;;;;;;;;;;23.07;58.49;100834.94;2173432;40;113966;-53
2021/08/09 07:36:05;;;;;;;;;;;;;;;23.04;58.16;100834.41;2174116;40;113855;-53
2021/08/09 07:37:41;;;;;;;;;;;;;;;23.05;58.28;100835.25;2175011;40;113725;-53
2021/08/09 07:39:13;;;;;;;;;;;;;;;23.03;58.24;100831.97;2177385;40;113912;-53
2021/08/09 07:40:45;;;;;;;;;;;;;;;23.03;58.30;100840.41;2173742;40;114901;-53
2021/08/09 07:42:17;;;;;;;;;;;;;;;23.04;58.18;100833.59;2174513;40;114769;-53
2021/08/09 07:43:56;;;;;;;;;;;;;;;23.03;58.12;100841.22;2174543;40;114966;-53
2021/08/09 07:45:28;;;;;;;;;;;;;;;23.03;58.24;100834.78;2174233;40;114894;-53
2021/08/09 07:46:59;;;;;;;;;;;;;;;23.02;58.23;100844.38;2185517;39;114911;-53
2021/08/09 07:48:31;;;;;;;;;;;;;;;23.02;58.24;100841.56;2178163;39;114854;-53
2021/08/09 07:50:03;;;;;;;;;;;;;;;23.01;58.51;100842.72;2174293;40;114794;-53